METAR AND TAF INFORMATION
METAR FOR LESA
ADDS - METARS form results

(2108 UTC 03 August 2021)
Data provider http://aviationweather.gov/metar/data/
 
METAR text: LESA 032100Z AUTO 29006KT CAVOK 19/09 Q1018
Conditions at: LESA (SALAMANCA (CIV/M, ES) observed 2100 UTC 03 August 2021
Temperature: 19.0°C (66°F)
Dewpoint: 9.0°C (48°F) [RH = 52%]
Pressure (altimeter): 30.06 inches Hg (1018.0 mb)
Winds: from the WNW (290 degrees) at 7 MPH (6 knots; 3.1 m/s)
Visibility: 6 or more miles (10+ km)
Ceiling: ceiling and visibility are OK
Clouds: unknown
Weather: no significant weather observed at this time

METAR text: LESA 032030Z AUTO 29007KT CAVOK 19/10 Q1017
Conditions at: LESA (SALAMANCA (CIV/M, ES) observed 2030 UTC 03 August 2021
Temperature: 19.0°C (66°F)
Dewpoint: 10.0°C (50°F) [RH = 56%]
Pressure (altimeter): 30.03 inches Hg (1017.0 mb)
Winds: from the WNW (290 degrees) at 8 MPH (7 knots; 3.6 m/s)
Visibility: 6 or more miles (10+ km)
Ceiling: ceiling and visibility are OK
Clouds: unknown
Weather: no significant weather observed at this time

Forecast for: LESA (SALAMANCA (CIV/M, ES)
Text: TAF LESA 032000Z 0321/0421 29007KT 9999 FEW040 TX28/0415Z TN13/0406Z
Forecast period: 2100 UTC 03 August 2021 to 2100 UTC 04 August 2021
Forecast type: FROM: standard forecast or significant change
Winds: from the WNW (290 degrees) at 8 MPH (7 knots; 3.6 m/s)
Visibility: 6 or more miles (10+ km)
Ceiling: at least 12,000 feet AGL
Clouds: few clouds at 4000 feet AGL
Weather: no significant weather forecast for this period

 AIRPORT MAP

 RUNWAY INFORMATION
Runway 03 Runway length 8202 ft Runway width 197 ft
Runway elevation 2595 ft Runway displaced threshold 0 ft Runway heading 28
Runway 21 Runway length 8202 ft Runway width 197 ft
Runway elevation 2586 ft Runway displaced threshold 0 ft Runway heading 208
Runway 08 Runway length 6594 ft Runway width 400 ft
Runway elevation 2587 ft Runway displaced threshold 0 ft Runway heading 74
Runway 26 Runway length 6594 ft Runway width 400 ft
Runway elevation 2588 ft Runway displaced threshold 0 ft Runway heading 254

 AIRPORT FREQUENCIES
Type APP Name APP Frequency 124.4 MHZ
Type GND Name GND Frequency 121.85 MHZ
Type TWR Name TWR Frequency 139.3 MHZ

 AIRPORT NEAR NAVIGATION AIDS
Type VOR-DME Name Salamanca Frequency 112200 KHZ
Type NDB Name Salamanca Frequency 399 KHZ
Type NDB Name Salamanca Frequency 423 KHZ
Type TACAN Name Salamanca Frequency 113300 KHZ





Powered by Virtual Airlines Manager

Maps by Rafael Santos